Time;durP1;ratioP1;P1;durP2;ratioP2;P2;SDS_P1;SDS_P2;PMS_P1;PMS_P2;Temp;Humidity;BMP_temperature;BMP_pressure;BME280_temperature;BME280_humidity;BME280_pressure;Samples;Min_cycle;Max_cycle;Signal;HPM_P1;HPM_P2
2024/01/26 00:00:35;;;;;;;51.50;22.98;;;9.60;99.90;;;9.39;98.46;101325.00;4995513;28;20045;-79
2024/01/26 00:03:02;;;;;;;45.70;23.80;;;9.50;99.90;;;9.41;98.56;101328.31;5013497;28;20092;-80
2024/01/26 00:05:30;;;;;;;43.40;23.25;;;9.60;99.90;;;9.38;99.04;101328.69;4995149;28;20116;-79
2024/01/26 00:07:58;;;;;;;38.30;22.25;;;9.60;99.90;;;9.40;99.15;101324.81;4994587;28;20042;-79
2024/01/26 00:10:27;;;;;;;36.60;21.70;;;9.60;99.90;;;9.41;99.13;101318.47;4994514;28;20501;-79
2024/01/26 00:12:55;;;;;;;43.13;23.25;;;9.60;99.90;;;9.43;99.17;101321.00;5010330;28;20591;-79
2024/01/26 00:15:26;;;;;;;41.78;23.10;;;9.60;99.90;;;9.42;99.57;101322.81;4961450;28;20050;-79
2024/01/26 00:17:53;;;;;;;43.88;22.90;;;9.60;99.90;;;9.45;99.48;101316.28;4994464;28;20062;-79
2024/01/26 00:20:21;;;;;;;37.28;22.65;;;9.60;99.90;;;9.47;99.59;101314.28;4993755;28;20053;-79
2024/01/26 00:22:48;;;;;;;45.70;23.58;;;9.60;99.90;;;9.49;99.75;101309.59;5011650;28;20056;-79
2024/01/26 00:25:16;;;;;;;47.42;25.55;;;9.60;99.90;;;9.49;99.39;101309.59;5012378;28;20084;-80
2024/01/26 00:27:44;;;;;;;53.58;26.50;;;9.60;99.90;;;9.46;99.56;101309.94;5010551;28;20077;-79
2024/01/26 00:30:12;;;;;;;53.60;27.23;;;9.60;99.90;;;9.46;99.73;101315.28;5001970;28;20130;-79
2024/01/26 00:32:41;;;;;;;43.92;24.00;;;9.70;99.90;;;9.49;99.70;101317.59;5011815;28;20049;-79
2024/01/26 00:35:09;;;;;;;40.17;23.02;;;9.70;99.90;;;9.50;99.51;101304.06;5009493;28;20108;-79
2024/01/26 00:37:36;;;;;;;50.28;26.13;;;9.60;99.90;;;9.49;99.68;101296.28;4992638;28;20048;-79
2024/01/26 00:40:05;;;;;;;45.60;23.52;;;9.70;99.90;;;9.51;99.63;101296.91;5011015;28;20460;-80
2024/01/26 00:42:34;;;;;;;46.90;24.58;;;9.60;99.90;;;9.52;99.63;101298.59;4985366;28;20080;-79
2024/01/26 00:45:01;;;;;;;41.80;23.83;;;9.70;99.90;;;9.49;99.85;101291.78;4993564;28;20042;-79
2024/01/26 00:47:29;;;;;;;50.20;26.13;;;9.70;99.90;;;9.48;100.00;101286.66;4985740;28;20045;-79
2024/01/26 00:49:58;;;;;;;41.42;24.13;;;9.70;99.90;;;9.48;100.00;101292.81;4982945;28;20100;-79
2024/01/26 00:52:25;;;;;;;43.83;24.00;;;9.70;99.90;;;9.49;99.99;101294.44;4984732;28;20061;-78
2024/01/26 00:54:52;;;;;;;49.33;25.77;;;9.70;99.90;;;9.51;100.00;101296.91;4969325;28;20096;-79
2024/01/26 00:57:20;;;;;;;47.22;25.52;;;9.70;99.90;;;9.50;100.00;101292.59;4959966;28;20057;-79
2024/01/26 00:59:48;;;;;;;49.53;25.70;;;9.70;99.90;;;9.51;100.00;101295.06;5010924;28;20085;-79
2024/01/26 01:02:15;;;;;;;46.88;26.17;;;9.70;99.90;;;9.52;100.00;101287.94;5010375;28;20443;-79
2024/01/26 01:04:42;;;;;;;44.85;25.05;;;9.70;99.90;;;9.54;100.00;101280.56;5011485;28;20041;-79
2024/01/26 01:07:11;;;;;;;50.30;27.38;;;9.70;99.90;;;9.53;100.00;101279.75;4992662;28;20477;-79
2024/01/26 01:09:40;;;;;;;60.70;28.50;;;9.70;99.90;;;9.53;100.00;101287.75;5010647;28;20103;-79
2024/01/26 01:12:08;;;;;;;58.25;27.73;;;9.70;99.90;;;9.53;100.00;101284.25;4992975;28;20050;-79
2024/01/26 01:14:36;;;;;;;47.35;26.30;;;9.70;99.90;;;9.52;100.00;101280.78;5010182;28;20429;-81
2024/01/26 01:17:05;;;;;;;50.97;26.80;;;9.70;99.90;;;9.54;100.00;101277.91;4991607;28;20057;-79
2024/01/26 01:19:33;;;;;;;45.42;26.95;;;9.70;99.90;;;9.55;99.97;101274.25;4976924;28;20054;-79
2024/01/26 01:22:00;;;;;;;44.75;26.92;;;9.70;99.90;;;9.55;99.96;101277.72;5010424;28;20115;-79
2024/01/26 01:24:29;;;;;;;53.58;27.83;;;9.70;99.90;;;9.60;99.90;101279.00;5008865;28;20049;-79
2024/01/26 01:26:56;;;;;;;53.00;27.58;;;9.70;99.90;;;9.58;99.93;101271.22;4992510;28;20130;-79
2024/01/26 01:29:24;;;;;;;50.17;26.95;;;9.70;99.90;;;9.58;99.91;101273.06;4992745;28;20085;-79
2024/01/26 01:31:51;;;;;;;59.45;27.92;;;9.70;99.90;;;9.60;99.80;101279.00;4992698;28;20128;-79
2024/01/26 01:34:19;;;;;;;52.45;28.17;;;9.70;99.90;;;9.62;99.69;101277.00;5009564;28;20144;-79
2024/01/26 01:36:46;;;;;;;52.33;28.83;;;9.70;99.90;;;9.62;99.68;101272.50;5009898;28;20037;-79
2024/01/26 01:39:13;;;;;;;64.30;29.92;;;9.80;99.90;;;9.58;99.80;101279.19;5010039;28;20042;-79
2024/01/26 01:41:48;;;;;;;54.75;28.35;;;9.70;99.90;;;9.60;99.99;101273.69;5009622;28;20101;-79
2024/01/26 01:44:16;;;;;;;49.13;26.48;;;9.80;99.90;;;9.59;100.00;101278.19;4991254;28;20060;-79
2024/01/26 01:46:43;;;;;;;42.08;25.92;;;9.80;99.90;;;9.60;100.00;101285.16;4991519;28;20052;-79
2024/01/26 01:49:11;;;;;;;51.08;26.58;;;9.80;99.90;;;9.60;100.00;101285.16;4967732;28;20046;-79
2024/01/26 01:51:39;;;;;;;46.70;26.33;;;9.80;99.90;;;9.62;100.00;101269.84;4991088;28;20611;-79
2024/01/26 01:54:09;;;;;;;49.33;26.00;;;9.80;99.90;;;9.64;100.00;101267.81;5009780;28;20041;-79
2024/01/26 01:56:39;;;;;;;41.83;25.20;;;9.80;99.90;;;9.64;100.00;101270.47;5008232;28;20053;-79
2024/01/26 01:59:09;;;;;;;43.35;24.02;;;9.80;99.90;;;9.66;100.00;101264.94;5008769;28;20129;-79
2024/01/26 02:01:37;;;;;;;48.40;25.70;;;9.80;99.90;;;9.65;100.00;101271.28;5009118;28;20093;-79
2024/01/26 02:04:05;;;;;;;46.58;24.15;;;9.80;99.90;;;9.65;100.00;101279.28;4992050;28;20053;-79
2024/01/26 02:06:32;;;;;;;39.92;22.88;;;9.80;99.90;;;9.65;100.00;101264.13;5008397;28;20056;-79
2024/01/26 02:09:00;;;;;;;40.17;23.88;;;9.80;99.90;;;9.66;100.00;101259.63;5010009;28;20042;-79
2024/01/26 02:11:27;;;;;;;49.25;25.13;;;9.80;99.90;;;9.65;100.00;101250.81;4992087;28;20054;-79
2024/01/26 02:13:55;;;;;;;39.72;22.83;;;9.80;99.90;;;9.68;100.00;101250.44;5009496;28;20053;-79
2024/01/26 02:16:24;;;;;;;36.97;21.58;;;9.80;99.90;;;9.68;100.00;101245.13;4991880;28;20037;-79
2024/01/26 02:18:51;;;;;;;42.85;23.33;;;9.80;99.90;;;9.69;100.00;101244.09;5009663;28;20091;-80
2024/01/26 02:21:19;;;;;;;39.65;21.55;;;9.90;99.90;;;9.71;100.00;101244.75;4991745;28;20058;-80
2024/01/26 02:23:48;;;;;;;42.50;22.23;;;9.90;99.90;;;9.72;100.00;101240.25;5010134;28;20077;-79
2024/01/26 02:26:15;;;;;;;36.85;21.50;;;9.90;99.90;;;9.73;100.00;101250.72;4992138;28;20096;-79
2024/01/26 02:28:42;;;;;;;43.47;23.08;;;9.90;99.90;;;9.74;100.00;101238.22;5009440;28;20481;-79
2024/01/26 02:31:10;;;;;;;43.78;21.50;;;9.90;99.90;;;9.72;100.00;101234.94;4983088;28;20100;-78
2024/01/26 02:33:38;;;;;;;45.85;22.58;;;9.90;99.90;;;9.72;100.00;101226.94;5009426;28;20050;-79
2024/01/26 02:36:07;;;;;;;42.20;21.63;;;9.90;99.90;;;9.72;100.00;101225.09;4995025;28;20056;-80
2024/01/26 02:38:35;;;;;;;39.25;22.02;;;9.90;99.90;;;9.73;100.00;101232.06;5016125;28;20497;-79
2024/01/26 02:41:04;;;;;;;43.13;22.42;;;9.90;99.90;;;9.74;100.00;101225.72;4988629;28;20382;-79
2024/01/26 02:43:32;;;;;;;36.83;19.70;;;9.90;99.90;;;9.77;100.00;101237.84;5016701;28;20509;-79
2024/01/26 02:45:59;;;;;;;42.03;22.60;;;9.90;99.90;;;9.74;100.00;101241.69;5016072;28;20049;-79
2024/01/26 02:48:27;;;;;;;40.50;22.38;;;9.90;99.90;;;9.75;100.00;101235.34;5015583;28;20519;-79
2024/01/26 02:50:54;;;;;;;41.90;21.40;;;9.90;99.90;;;9.73;100.00;101232.06;5014029;28;20468;-79
2024/01/26 02:53:22;;;;;;;38.60;21.23;;;9.90;99.90;;;9.75;100.00;101230.03;5014094;28;20255;-82
2024/01/26 02:55:49;;;;;;;36.92;20.63;;;9.90;99.90;;;9.75;100.00;101215.88;5014372;28;20501;-79
2024/01/26 02:58:19;;;;;;;36.13;20.80;;;9.90;99.90;;;9.77;100.00;101206.72;5015922;28;20540;-79
2024/01/26 03:00:48;;;;;;;38.78;20.35;;;9.90;99.90;;;9.75;100.00;101214.03;5016142;28;20061;-79
2024/01/26 03:03:15;;;;;;;36.67;20.15;;;9.90;99.90;;;9.76;100.00;101212.22;4998156;28;20383;-79
2024/01/26 03:05:44;;;;;;;40.85;20.80;;;9.90;99.90;;;9.77;100.00;101205.88;4980759;28;20045;-79
2024/01/26 03:08:11;;;;;;;33.63;20.40;;;9.90;99.90;;;9.78;100.00;101210.19;5015546;28;20123;-79
2024/01/26 03:10:39;;;;;;;37.15;20.60;;;9.90;99.90;;;9.80;100.00;101214.31;4997801;28;20049;-79
2024/01/26 03:13:06;;;;;;;36.20;19.90;;;9.90;99.90;;;9.80;100.00;101211.66;4947982;28;20057;-79
2024/01/26 03:15:36;;;;;;;33.70;19.30;;;9.90;99.90;;;9.78;100.00;101213.69;5014049;28;20046;-78
2024/01/26 03:18:05;;;;;;;32.42;19.25;;;9.90;99.90;;;9.80;100.00;101214.31;5015069;28;20045;-79
2024/01/26 03:20:32;;;;;;;32.20;19.30;;;10.00;99.90;;;9.82;100.00;101213.31;4982298;28;20049;-79
2024/01/26 03:23:00;;;;;;;32.35;17.95;;;10.00;99.90;;;9.83;100.00;101215.78;4973762;28;20042;-79
2024/01/26 03:25:27;;;;;;;35.28;18.85;;;10.00;99.90;;;9.84;100.00;101208.63;5015489;28;20041;-79
2024/01/26 03:27:55;;;;;;;28.10;17.33;;;10.00;99.90;;;9.84;100.00;101211.28;4998144;28;20041;-78
2024/01/26 03:30:23;;;;;;;32.25;18.08;;;10.00;99.90;;;9.83;99.87;101197.13;4989661;28;20100;-79
2024/01/26 03:32:52;;;;;;;30.70;16.42;;;10.00;99.90;;;9.83;99.64;101199.81;4998093;28;20128;-79
2024/01/26 03:35:20;;;;;;;24.85;15.57;;;9.90;99.90;;;9.84;99.60;101187.31;5014997;28;20280;-80
2024/01/26 03:37:47;;;;;;;30.90;16.75;;;9.90;99.90;;;9.84;99.29;101177.47;5004402;28;20057;-79
2024/01/26 03:40:15;;;;;;;26.48;15.18;;;9.90;99.90;;;9.80;99.21;101184.19;5015174;28;20169;-79
2024/01/26 03:42:44;;;;;;;28.92;16.48;;;9.90;99.90;;;9.79;99.17;101172.72;5015747;28;20100;-79
2024/01/26 03:45:12;;;;;;;27.20;16.30;;;10.00;99.90;;;9.79;99.22;101162.06;5015731;28;20104;-79
2024/01/26 03:47:40;;;;;;;28.45;15.95;;;10.00;99.90;;;9.82;99.39;101173.38;4995046;28;20042;-79
2024/01/26 03:50:12;;;;;;;27.92;16.92;;;10.00;99.90;;;9.82;99.31;101174.19;4994990;28;20111;-79
2024/01/26 03:52:39;;;;;;;29.17;16.88;;;10.00;99.90;;;9.80;99.47;101166.34;5012946;28;20072;-79
2024/01/26 03:55:08;;;;;;;32.55;17.38;;;10.00;99.90;;;9.83;99.60;101177.66;5012580;28;20560;-79
2024/01/26 03:57:37;;;;;;;29.40;16.92;;;10.00;99.90;;;9.84;99.42;101172.16;5012571;28;20073;-80
2024/01/26 04:00:07;;;;;;;29.63;16.33;;;10.00;99.90;;;9.83;99.18;101181.16;5012017;28;20050;-79
2024/01/26 04:02:41;;;;;;;32.30;17.00;;;10.00;99.90;;;9.84;99.14;101177.47;4995408;28;20129;-80
2024/01/26 04:05:10;;;;;;;28.17;16.38;;;10.00;99.90;;;9.84;99.11;101171.31;4994424;28;20108;-79
2024/01/26 04:07:37;;;;;;;25.25;16.17;;;10.00;99.90;;;9.84;99.14;101158.00;5010392;28;21102;-79
2024/01/26 04:10:06;;;;;;;23.77;15.45;;;9.90;99.90;;;9.87;99.10;101137.13;5011936;28;20050;-79
2024/01/26 04:12:34;;;;;;;29.00;16.50;;;10.00;99.90;;;9.84;98.90;101137.50;5011142;28;20038;-79
2024/01/26 04:15:01;;;;;;;28.10;15.80;;;10.00;99.90;;;9.85;98.81;101133.00;4994348;28;20050;-79
2024/01/26 04:17:29;;;;;;;25.10;14.85;;;10.00;99.90;;;9.85;98.53;101127.69;5012295;28;20579;-79
2024/01/26 04:19:56;;;;;;;28.60;14.80;;;10.00;99.90;;;9.83;98.48;101119.88;4993865;28;20077;-79
2024/01/26 04:22:25;;;;;;;23.55;14.70;;;10.00;99.90;;;9.83;98.43;101119.06;4994556;28;20049;-79
2024/01/26 04:24:53;;;;;;;24.00;13.70;;;10.00;99.90;;;9.82;98.34;101122.75;5011176;28;20058;-79
2024/01/26 04:27:20;;;;;;;24.10;13.32;;;10.00;99.90;;;9.80;98.28;101126.41;5010926;28;20041;-79
2024/01/26 04:29:48;;;;;;;24.38;13.25;;;10.00;99.90;;;9.83;98.19;101116.41;5010918;28;20053;-79
2024/01/26 04:32:15;;;;;;;22.95;13.13;;;10.00;99.90;;;9.83;97.95;101114.56;4985046;28;20053;-79
2024/01/26 04:34:43;;;;;;;25.95;13.32;;;10.00;99.90;;;9.81;97.79;101105.94;5011056;28;20054;-79
2024/01/26 04:37:10;;;;;;;19.70;12.30;;;10.00;99.90;;;9.80;97.60;101091.78;4969435;28;20042;-79
2024/01/26 04:39:39;;;;;;;23.10;12.90;;;10.00;99.90;;;9.78;97.72;101082.34;5011427;28;20062;-79
2024/01/26 04:42:08;;;;;;;21.90;12.73;;;10.00;99.90;;;9.76;97.67;101079.88;4993861;28;20062;-79
2024/01/26 04:44:36;;;;;;;22.88;12.98;;;10.00;99.90;;;9.78;97.77;101077.84;4993754;28;20054;-79
2024/01/26 04:47:04;;;;;;;20.25;12.57;;;10.00;99.90;;;9.80;97.79;101078.44;4977697;28;20038;-79
2024/01/26 04:49:31;;;;;;;20.15;12.50;;;10.00;99.90;;;9.82;97.52;101078.28;5009781;28;20060;-79
2024/01/26 04:52:01;;;;;;;20.88;12.45;;;10.00;99.90;;;9.82;97.64;101083.59;4993970;28;20112;-79
2024/01/26 04:54:28;;;;;;;21.45;12.15;;;10.00;99.90;;;9.82;97.34;101080.94;5011490;28;20073;-79
2024/01/26 04:56:57;;;;;;;24.10;13.25;;;10.00;99.90;;;9.82;97.29;101064.97;4993673;28;20077;-79
2024/01/26 04:59:25;;;;;;;20.88;12.63;;;10.00;99.90;;;9.83;97.26;101052.47;5009027;28;20048;-79
2024/01/26 05:01:52;;;;;;;19.83;11.85;;;10.00;99.90;;;9.80;96.93;101046.47;5011329;28;20092;-79
2024/01/26 05:04:19;;;;;;;21.30;13.18;;;10.00;99.90;;;9.77;96.91;101046.88;4983658;28;20050;-79
2024/01/26 05:06:47;;;;;;;21.48;12.88;;;10.00;99.90;;;9.78;96.81;101037.06;5009035;28;20528;-79
2024/01/26 05:09:16;;;;;;;21.17;12.93;;;10.00;99.90;;;9.78;96.78;101039.72;4990384;28;20149;-80
2024/01/26 05:11:44;;;;;;;18.45;11.57;;;10.00;99.90;;;9.77;97.09;101036.22;4999175;28;20477;-79
2024/01/26 05:14:14;;;;;;;19.58;11.70;;;10.00;99.90;;;9.75;96.96;101034.75;4999603;28;20104;-81
2024/01/26 05:16:42;;;;;;;23.80;12.30;;;10.00;99.90;;;9.77;96.96;101044.22;4999909;28;20042;-80
2024/01/26 05:19:09;;;;;;;20.75;11.52;;;10.00;99.90;;;9.80;97.08;101029.69;5016552;28;20124;-84
2024/01/26 05:21:37;;;;;;;19.17;11.45;;;10.00;99.90;;;9.79;96.93;101022.72;5016296;28;20100;-84
2024/01/26 05:24:06;;;;;;;18.77;10.77;;;10.00;99.90;;;9.77;96.83;101032.75;4997853;28;20132;-84
2024/01/26 05:26:33;;;;;;;16.85;10.70;;;10.00;99.90;;;9.77;96.78;101028.25;5015825;28;20084;-84
2024/01/26 05:29:01;;;;;;;16.52;10.07;;;10.00;99.90;;;9.77;96.72;101030.91;5015618;28;20052;-83
2024/01/26 05:31:30;;;;;;;17.63;9.88;;;10.00;99.90;;;9.79;96.57;101034.19;5016359;28;20508;-85
2024/01/26 05:33:57;;;;;;;16.77;9.73;;;10.00;99.90;;;9.80;96.38;101035.81;4998339;28;20519;-84
2024/01/26 05:36:26;;;;;;;15.13;9.52;;;10.00;99.90;;;9.79;96.43;101036.84;4997980;28;20045;-85
2024/01/26 05:38:53;;;;;;;15.93;9.02;;;10.00;99.90;;;9.77;96.26;101028.25;5004403;28;20046;-85
2024/01/26 05:41:21;;;;;;;16.25;9.45;;;10.00;99.90;;;9.79;96.24;101023.53;5014477;28;20501;-85
2024/01/26 05:43:50;;;;;;;14.93;8.98;;;10.00;99.90;;;9.82;96.11;101016.19;5014369;28;20042;-84
2024/01/26 05:46:18;;;;;;;12.35;7.70;;;10.00;99.90;;;9.78;96.03;101021.88;4996825;28;20053;-84
2024/01/26 05:48:47;;;;;;;12.45;8.15;;;10.00;99.90;;;9.83;95.85;101017.81;4978500;28;20046;-84
2024/01/26 05:51:14;;;;;;;14.88;8.40;;;10.00;99.90;;;9.83;95.75;100997.34;4980320;28;20525;-84
2024/01/26 05:53:42;;;;;;;13.93;8.10;;;10.00;99.90;;;9.85;95.41;100986.47;4996483;28;20046;-85
2024/01/26 05:56:10;;;;;;;13.73;7.85;;;10.00;99.90;;;9.87;95.24;100981.81;4985542;28;20041;-84
2024/01/26 05:58:37;;;;;;;12.05;6.78;;;10.00;99.90;;;9.83;94.80;100991.19;5016386;28;20053;-85
2024/01/26 06:01:05;;;;;;;11.02;6.50;;;10.00;99.90;;;9.86;94.60;100993.44;4981504;28;20046;-84
2024/01/26 06:03:33;;;;;;;12.15;6.60;;;10.00;99.90;;;9.85;94.72;100986.47;5015532;28;20456;-84
2024/01/26 06:06:03;;;;;;;10.43;6.07;;;10.00;99.90;;;9.84;94.43;100985.66;4997803;28;20128;-85
2024/01/26 06:08:31;;;;;;;10.35;6.20;;;10.00;99.90;;;9.82;94.16;100976.22;4997432;28;20421;-84
2024/01/26 06:10:58;;;;;;;9.73;6.15;;;10.00;99.90;;;9.83;93.85;100975.22;4996919;28;20052;-84
2024/01/26 06:13:26;;;;;;;11.88;6.15;;;10.00;99.90;;;9.87;93.77;100969.31;4982201;28;20505;-84
2024/01/26 06:15:53;;;;;;;8.98;5.50;;;10.00;99.90;;;9.83;93.34;100954.72;4997990;28;20136;-85
2024/01/26 06:18:22;;;;;;;14.00;5.72;;;10.00;99.90;;;9.85;93.31;100951.84;4997721;28;20046;-84
2024/01/26 06:20:50;;;;;;;11.40;5.45;;;10.00;99.90;;;9.87;93.24;100942.66;5015127;28;20068;-84
2024/01/26 06:23:18;;;;;;;9.57;5.38;;;10.00;99.90;;;9.87;93.17;100950.66;4981838;28;20050;-83
2024/01/26 06:25:46;;;;;;;8.68;5.32;;;10.00;99.90;;;9.87;93.11;100941.84;4996808;28;20140;-80
2024/01/26 06:28:13;;;;;;;9.90;5.32;;;10.00;99.90;;;9.88;93.04;100940.81;5016831;28;20053;-79
2024/01/26 06:30:41;;;;;;;10.27;5.65;;;10.00;99.90;;;9.86;92.88;100937.50;4998354;28;20038;-79
2024/01/26 06:33:08;;;;;;;11.25;4.95;;;10.10;99.90;;;9.88;92.71;100924.84;4972269;28;20057;-79
2024/01/26 06:35:36;;;;;;;8.45;4.63;;;10.10;99.90;;;9.88;92.48;100924.84;4964341;28;20097;-85
2024/01/26 06:38:04;;;;;;;8.38;4.72;;;10.10;99.90;;;9.92;92.34;100931.41;4963595;28;20065;-85
2024/01/26 06:40:33;;;;;;;9.43;4.75;;;10.10;99.90;;;9.96;92.38;100932.69;4981715;28;20045;-89
2024/01/26 06:43:05;;;;;;;9.38;4.95;;;10.10;99.90;;;9.93;92.32;100925.06;4979950;28;20049;-89
2024/01/26 06:45:35;;;;;;;9.82;4.38;;;10.10;99.90;;;9.94;92.13;100913.38;4986498;28;20092;-89
2024/01/26 06:48:03;;;;;;;9.88;4.72;;;10.10;99.90;;;9.96;92.08;100922.03;5010791;28;20050;-89
2024/01/26 06:50:33;;;;;;;9.82;4.80;;;10.10;99.90;;;9.97;92.03;100923.66;4983684;28;20042;-87
2024/01/26 06:53:01;;;;;;;7.97;4.25;;;10.10;99.90;;;9.98;92.01;100922.63;4996259;28;20480;-90
2024/01/26 06:55:31;;;;;;;9.05;3.95;;;10.20;99.90;;;9.96;91.98;100920.19;4966383;28;20465;-90
2024/01/26 06:58:00;;;;;;;6.93;3.90;;;10.20;99.90;;;9.97;92.06;100911.16;4992853;28;20046;-85
2024/01/26 07:00:29;;;;;;;5.93;3.30;;;10.20;99.90;;;9.99;92.09;100905.63;4993599;28;20514;-80
2024/01/26 07:02:57;;;;;;;5.90;3.38;;;10.20;99.90;;;9.99;92.10;100906.44;4975555;28;20073;-80
2024/01/26 07:05:25;;;;;;;5.22;3.00;;;10.20;99.90;;;9.98;92.03;100907.47;4998362;28;20092;-81
2024/01/26 07:07:54;;;;;;;7.38;3.30;;;10.20;99.90;;;10.00;92.45;100891.28;5012809;28;20042;-81
2024/01/26 07:10:22;;;;;;;7.57;3.40;;;10.20;99.90;;;9.96;92.67;100890.88;4997367;28;20140;-81
2024/01/26 07:12:49;;;;;;;6.93;3.42;;;10.20;99.90;;;9.96;92.90;100887.38;4998979;28;20092;-81
2024/01/26 07:15:18;;;;;;;9.18;3.40;;;10.20;99.90;;;9.98;92.86;100893.31;5008902;28;20119;-81
2024/01/26 07:17:46;;;;;;;6.90;3.30;;;10.20;99.90;;;9.98;93.02;100883.50;5015301;28;20033;-81
2024/01/26 07:20:13;;;;;;;5.40;2.72;;;10.20;99.90;;;9.96;93.27;100871.41;5025223;28;20512;-80
2024/01/26 07:22:41;;;;;;;8.55;3.45;;;10.20;99.90;;;9.97;93.38;100873.03;5013651;28;20047;-81
2024/01/26 07:25:11;;;;;;;5.07;3.20;;;10.20;99.90;;;9.94;93.39;100876.09;5000115;28;20047;-81
2024/01/26 07:27:39;;;;;;;6.40;3.97;;;10.10;99.90;;;9.92;93.67;100883.47;4981934;28;20404;-81
2024/01/26 07:30:08;;;;;;;6.57;3.38;;;10.10;99.90;;;9.94;93.63;100890.22;4964987;28;20077;-81
2024/01/26 07:32:37;;;;;;;8.18;4.53;;;10.10;99.90;;;9.98;93.55;100885.34;5023321;28;20148;-81
2024/01/26 07:35:06;;;;;;;7.78;4.10;;;10.10;99.90;;;9.98;93.45;100885.34;5038157;28;20453;-81
2024/01/26 07:37:34;;;;;;;8.63;4.00;;;10.10;99.90;;;9.99;93.65;100878.97;5020448;28;20077;-81
2024/01/26 07:40:04;;;;;;;11.15;4.25;;;10.10;99.90;;;10.00;93.59;100883.28;5003803;28;20465;-81
2024/01/26 07:42:32;;;;;;;8.70;4.28;;;10.10;99.90;;;9.99;93.79;100884.31;5025281;28;20080;-81
2024/01/26 07:45:01;;;;;;;11.23;4.80;;;10.10;99.90;;;9.95;94.07;100886.53;5018561;28;20105;-81
2024/01/26 07:47:28;;;;;;;10.88;4.63;;;10.10;99.90;;;9.96;94.38;100895.38;5000333;28;20046;-80
2024/01/26 07:49:57;;;;;;;10.40;4.68;;;10.10;99.90;;;9.93;94.75;100885.09;5008140;28;20096;-80
2024/01/26 07:52:24;;;;;;;9.48;4.28;;;10.10;99.90;;;9.91;95.21;100895.97;5018136;28;20096;-81
2024/01/26 07:54:54;;;;;;;9.13;4.63;;;10.10;99.90;;;9.85;95.75;100898.56;4985128;28;20054;-80
2024/01/26 07:57:24;;;;;;;9.00;4.32;;;10.10;99.90;;;9.83;96.35;100896.09;5002680;28;20046;-81
2024/01/26 07:59:51;;;;;;;9.57;4.85;;;10.00;99.90;;;9.82;96.75;100901.66;5002047;28;20054;-81
2024/01/26 08:02:19;;;;;;;9.23;5.10;;;10.00;99.90;;;9.83;96.82;100898.78;5001907;28;20050;-81
2024/01/26 08:04:46;;;;;;;8.63;4.45;;;10.00;99.90;;;9.81;97.21;100887.50;5022878;28;20074;-82
2024/01/26 08:07:16;;;;;;;8.57;4.90;;;10.00;99.90;;;9.77;97.59;100887.06;5019381;28;20125;-81
2024/01/26 08:09:44;;;;;;;8.85;4.93;;;10.00;99.90;;;9.79;97.93;100885.00;5018080;28;20108;-81
2024/01/26 08:12:11;;;;;;;9.70;5.13;;;10.00;99.90;;;9.80;97.96;100880.50;5001391;28;20046;-82
2024/01/26 08:14:39;;;;;;;11.77;5.57;;;10.00;99.90;;;9.75;98.47;100872.28;5000568;28;20042;-81
2024/01/26 08:17:07;;;;;;;10.07;5.95;;;10.00;99.90;;;9.74;98.90;100863.47;4981121;28;20129;-81
2024/01/26 08:19:35;;;;;;;8.20;5.35;;;10.00;99.90;;;9.76;99.11;100879.25;4997860;28;20042;-81
2024/01/26 08:22:03;;;;;;;10.70;5.95;;;10.00;99.90;;;9.73;99.37;100872.50;4998381;28;20052;-81
2024/01/26 08:24:33;;;;;;;10.05;5.97;;;10.00;99.90;;;9.72;100.00;100870.84;4998445;28;20121;-81
2024/01/26 08:27:00;;;;;;;10.95;6.00;;;10.00;99.90;;;9.73;100.00;100872.50;4998919;28;20049;-81
2024/01/26 08:29:27;;;;;;;9.93;6.45;;;10.00;99.90;;;9.74;100.00;100876.78;4965361;28;20134;-81
2024/01/26 08:31:55;;;;;;;14.18;7.25;;;10.00;99.90;;;9.79;100.00;100877.03;4996730;28;20425;-81
2024/01/26 08:34:22;;;;;;;12.50;7.38;;;10.00;99.90;;;9.80;100.00;100869.84;5012493;28;20046;-81
2024/01/26 08:36:50;;;;;;;10.20;7.03;;;10.00;99.90;;;9.80;100.00;100867.19;4999040;28;20046;-81
2024/01/26 08:39:17;;;;;;;11.00;7.25;;;10.10;99.90;;;9.85;100.00;100871.94;5017742;28;20091;-82
2024/01/26 08:41:47;;;;;;;11.95;7.88;;;10.10;99.90;;;9.88;100.00;100858.22;5017960;28;20050;-81
2024/01/26 08:44:14;;;;;;;12.55;7.30;;;10.10;99.90;;;9.93;100.00;100858.47;5018676;28;20045;-81
2024/01/26 08:46:41;;;;;;;12.25;7.68;;;10.10;99.90;;;9.91;100.00;100871.16;5017838;28;20125;-81
2024/01/26 08:49:09;;;;;;;12.45;7.97;;;10.10;99.90;;;9.93;100.00;100871.78;5017755;28;20100;-81
2024/01/26 08:51:37;;;;;;;13.93;8.30;;;10.10;99.90;;;9.94;100.00;100876.09;5017654;28;20061;-81
2024/01/26 08:54:04;;;;;;;13.80;8.88;;;10.10;99.90;;;9.93;100.00;100877.94;5017886;28;20088;-81
2024/01/26 08:56:32;;;;;;;14.45;9.02;;;10.20;99.90;;;9.97;100.00;100889.03;5016476;28;20116;-81
2024/01/26 08:59:01;;;;;;;12.45;8.32;;;10.20;99.90;;;10.00;100.00;100896.59;4979794;28;20069;-81
2024/01/26 09:01:29;;;;;;;13.13;8.45;;;10.30;99.90;;;10.01;100.00;100890.28;4984086;28;20100;-81
2024/01/26 09:03:56;;;;;;;14.88;9.70;;;10.20;99.90;;;10.02;100.00;100898.06;4980122;28;20502;-81
2024/01/26 09:06:24;;;;;;;14.40;8.98;;;10.30;99.90;;;10.06;100.00;100903.84;4996748;28;20041;-81
2024/01/26 09:08:52;;;;;;;17.98;9.52;;;10.30;99.90;;;10.08;100.00;100899.13;4996389;28;20050;-81
2024/01/26 09:11:19;;;;;;;14.52;8.95;;;10.30;99.90;;;10.08;100.00;100891.13;4999797;28;20112;-81
2024/01/26 09:13:47;;;;;;;16.83;9.15;;;10.40;99.90;;;10.11;100.00;100893.41;5017649;28;20389;-81
2024/01/26 09:16:16;;;;;;;15.65;9.25;;;10.40;99.90;;;10.14;100.00;100902.84;4999808;28;20088;-81
2024/01/26 09:18:43;;;;;;;16.33;9.00;;;10.40;99.90;;;10.14;100.00;100895.66;4999032;28;20132;-81
2024/01/26 09:21:11;;;;;;;15.18;7.70;;;10.40;99.90;;;10.17;100.00;100897.94;5017172;28;20053;-81
2024/01/26 09:23:39;;;;;;;13.25;7.70;;;10.40;99.90;;;10.20;100.00;100896.69;5016991;28;20080;-81
2024/01/26 09:26:07;;;;;;;15.50;8.38;;;10.50;99.90;;;10.22;100.00;100884.84;5016815;28;20395;-81
2024/01/26 09:28:35;;;;;;;10.77;6.55;;;10.50;99.90;;;10.25;100.00;100889.00;5016621;28;20038;-81
2024/01/26 09:31:02;;;;;;;14.60;7.22;;;10.50;99.90;;;10.27;100.00;100890.41;5015339;28;20520;-81
2024/01/26 09:33:31;;;;;;;14.93;7.55;;;10.60;99.90;;;10.27;100.00;100890.41;4998605;28;20053;-81
2024/01/26 09:35:59;;;;;;;11.15;7.25;;;10.60;99.90;;;10.31;100.00;100877.53;5014178;28;20050;-81
2024/01/26 09:38:26;;;;;;;13.85;7.30;;;10.60;99.90;;;10.33;100.00;100870.13;4996238;28;20589;-81
2024/01/26 09:40:54;;;;;;;13.88;7.05;;;10.60;99.90;;;10.37;100.00;100865.25;4996843;28;20101;-81
2024/01/26 09:43:22;;;;;;;11.77;7.22;;;10.70;99.90;;;10.40;100.00;100867.50;4995970;28;20116;-81
2024/01/26 09:45:52;;;;;;;11.05;6.93;;;10.70;99.90;;;10.42;100.00;100876.94;4996145;28;20133;-82
2024/01/26 09:48:20;;;;;;;14.32;6.95;;;10.70;99.90;;;10.43;100.00;100870.59;4963656;28;20417;-81
2024/01/26 09:50:51;;;;;;;10.27;6.43;;;10.70;99.90;;;10.46;100.00;100866.72;4997240;28;20046;-81
2024/01/26 09:53:19;;;;;;;9.52;5.70;;;10.70;99.90;;;10.49;100.00;100874.28;4999751;28;20046;-81
2024/01/26 09:55:47;;;;;;;8.35;5.68;;;10.80;99.90;;;10.52;100.00;100868.56;4999165;28;20049;-81
2024/01/26 09:58:15;;;;;;;11.57;6.07;;;10.80;99.90;;;10.53;100.00;100867.53;4983914;28;20049;-82
2024/01/26 10:00:45;;;;;;;13.77;5.93;;;10.80;99.90;;;10.54;100.00;100866.50;4979610;28;20066;-81
2024/01/26 10:03:12;;;;;;;11.52;6.05;;;10.80;99.90;;;10.54;100.00;100867.34;4980191;28;20117;-81
2024/01/26 10:05:40;;;;;;;10.27;6.10;;;10.80;99.90;;;10.57;100.00;100871.44;4978930;28;20598;-82
2024/01/26 10:08:13;;;;;;;11.13;5.93;;;10.90;99.90;;;10.57;100.00;100868.78;4997012;28;20038;-82
2024/01/26 10:10:41;;;;;;;10.85;6.68;;;10.90;99.90;;;10.59;100.00;100874.75;4980562;28;20104;-81